Terminal Aerodrome Forecast
Issued by NWS

Home | Current Version | Previous Version | Text Only | Print | Product List | Glossary On
Versions: 1 2 3 4 5 6 7 8 9 10 11 12 13 14 15 16 17 18 19 20 21 22 23
713
FTUS43 KDTX 311320 AAA
TAFDET
TAF AMD
KDET 311320Z 3113/0112 32005KT P6SM BKN012 OVC020
      TEMPO 3113/3115 5SM BR BKN006 OVC010
     FM311600 36008KT P6SM BKN022 BKN040
     FM311700 36010KT P6SM SCT028 BKN040
     FM312200 36008KT P6SM SCT045
     FM010200 34006KT P6SM SCT035=

USA.gov is the U.S. government's official web portal to all federal, state and local government web resources and services.